Time;durP1;ratioP1;P1;durP2;ratioP2;P2;SDS_P1;SDS_P2;PMS_P1;PMS_P2;Temp;Humidity;BMP_temperature;BMP_pressure;BME280_temperature;BME280_humidity;BME280_pressure;Samples;Min_cycle;Max_cycle;Signal;HPM_P1;HPM_P2
2021/07/01 00:01:52;;;;;;;;;14.75;14.00;;;;;17.86;62.85;101486.94;5016155;28;45468;-83
2021/07/01 00:04:18;;;;;;;;;10.75;10.25;;;;;17.87;62.66;101491.31;5016337;28;45399;-83
2021/07/01 00:06:44;;;;;;;;;14.25;9.75;;;;;17.87;62.46;101499.16;5016102;28;45397;-83
2021/07/01 00:09:17;;;;;;;;;15.00;11.50;;;;;17.86;62.77;101499.13;5016614;28;45403;-83
2021/07/01 00:11:44;;;;;;;;;11.50;10.50;;;;;17.82;62.13;101490.31;5015831;28;46514;-83
2021/07/01 00:14:11;;;;;;;;;16.75;13.50;;;;;17.80;62.53;101497.25;4998301;28;45497;-83
2021/07/01 00:16:37;;;;;;;;;9.75;8.00;;;;;17.79;62.59;101495.47;5016222;28;45319;-84
2021/07/01 00:19:04;;;;;;;;;9.50;8.25;;;;;17.77;62.32;101494.53;5018287;28;45234;-84
2021/07/01 00:21:30;;;;;;;;;15.75;13.25;;;;;17.73;62.40;101490.09;5019974;28;46324;-84
2021/07/01 00:23:55;;;;;;;;;13.00;11.25;;;;;17.73;62.43;101487.47;5016430;28;45277;-84
2021/07/01 00:26:21;;;;;;;;;13.00;11.00;;;;;17.76;62.72;101503.28;5016968;28;45357;-83
2021/07/01 00:28:47;;;;;;;;;16.00;14.00;;;;;17.74;62.66;101495.34;5031217;28;45539;-83
2021/07/01 00:31:13;;;;;;;;;12.25;11.50;;;;;17.71;62.54;101490.03;4998257;28;45641;-84
2021/07/01 00:33:38;;;;;;;;;11.50;10.50;;;;;17.70;62.58;101496.13;5015608;28;45905;-84
2021/07/01 00:36:04;;;;;;;;;11.75;11.00;;;;;17.73;62.64;101497.94;4998183;28;45334;-83
2021/07/01 00:38:30;;;;;;;;;12.00;9.50;;;;;17.75;62.87;101499.75;5015842;28;45548;-84
2021/07/01 00:40:56;;;;;;;;;10.00;8.00;;;;;17.73;62.73;101495.31;5016133;28;45451;-84
2021/07/01 00:43:22;;;;;;;;;12.00;11.25;;;;;17.72;62.43;101490.94;5016061;28;45316;-84
2021/07/01 00:45:49;;;;;;;;;14.50;13.50;;;;;17.70;62.73;101498.75;5015433;28;45433;-83
2021/07/01 00:48:15;;;;;;;;;14.00;12.75;;;;;17.68;62.86;101489.06;4998075;28;45516;-83
2021/07/01 00:50:41;;;;;;;;;10.25;8.75;;;;;17.69;63.00;101493.47;5015488;28;45744;-84
2021/07/01 00:53:06;;;;;;;;;14.00;13.25;;;;;17.63;62.68;101478.47;4997733;28;45553;-83
2021/07/01 00:55:33;;;;;;;;;10.75;9.00;;;;;17.70;63.05;101492.63;5014327;28;45395;-83
2021/07/01 00:57:58;;;;;;;;;10.50;10.50;;;;;17.64;63.03;101485.47;5018449;28;45855;-83
2021/07/01 01:03:02;;;;;;;;;12.75;11.00;;;;;17.57;63.24;101481.81;5017805;28;45292;-84
2021/07/01 01:05:27;;;;;;;;;8.00;8.00;;;;;17.61;63.13;101488.00;5018779;28;45263;-83
2021/07/01 01:07:53;;;;;;;;;11.50;10.50;;;;;17.59;62.94;101485.38;5019669;28;45490;-84
2021/07/01 01:10:19;;;;;;;;;16.00;13.75;;;;;17.58;63.25;101486.22;5019126;28;45518;-84
2021/07/01 01:12:44;;;;;;;;;16.00;13.25;;;;;17.58;63.58;101490.56;5018735;28;45370;-84
2021/07/01 01:15:11;;;;;;;;;12.00;11.25;;;;;17.56;63.36;101485.28;5019059;28;45388;-83
2021/07/01 01:17:37;;;;;;;;;12.50;11.25;;;;;17.56;63.39;101493.13;5018949;28;45353;-84
2021/07/01 01:20:04;;;;;;;;;12.25;10.75;;;;;17.57;63.45;101486.19;5018699;28;45471;-84
2021/07/01 01:22:30;;;;;;;;;13.75;12.00;;;;;17.52;63.41;101485.16;5008746;28;45300;-84
2021/07/01 01:24:55;;;;;;;;;12.75;11.00;;;;;17.53;63.54;101479.97;5007375;28;45357;-84
2021/07/01 01:27:22;;;;;;;;;13.25;13.00;;;;;17.53;63.71;101486.94;5021257;28;45410;-84
2021/07/01 01:29:48;;;;;;;;;13.50;12.25;;;;;17.51;63.83;101493.84;5019245;28;46289;-84
2021/07/01 01:32:14;;;;;;;;;15.25;12.50;;;;;17.48;63.53;101484.19;5019269;28;45271;-85
2021/07/01 01:34:40;;;;;;;;;12.25;10.25;;;;;17.45;64.01;101476.25;5021106;28;45413;-84
2021/07/01 01:37:08;;;;;;;;;15.00;14.50;;;;;17.47;63.53;101485.03;5007368;28;45587;-83
2021/07/01 01:39:34;;;;;;;;;15.25;13.00;;;;;17.48;63.48;101489.41;5018817;28;46820;-84
2021/07/01 01:42:00;;;;;;;;;14.00;13.00;;;;;17.43;63.54;101484.06;5000808;28;45674;-83
2021/07/01 01:44:26;;;;;;;;;12.75;9.25;;;;;17.42;63.90;101486.66;5018447;28;45429;-82
2021/07/01 01:46:51;;;;;;;;;11.75;11.25;;;;;17.41;63.75;101490.09;5019118;28;45578;-83
2021/07/01 01:49:19;;;;;;;;;16.50;11.25;;;;;17.39;64.10;101491.78;5018172;28;46396;-83
2021/07/01 01:51:45;;;;;;;;;11.00;11.00;;;;;17.38;63.89;101487.41;5018256;28;45364;-83
2021/07/01 01:54:11;;;;;;;;;13.00;11.50;;;;;17.37;64.28;101488.25;5000774;28;45448;-84
2021/07/01 01:56:37;;;;;;;;;14.25;12.50;;;;;17.33;64.24;101479.41;5018393;28;45490;-84
2021/07/01 01:59:07;;;;;;;;;15.50;12.75;;;;;17.35;64.31;101482.97;5018401;28;45449;-84
2021/07/01 02:01:34;;;;;;;;;14.00;14.00;;;;;17.33;64.07;101482.91;5018366;28;45302;-83
2021/07/01 02:03:59;;;;;;;;;14.00;12.75;;;;;17.32;64.36;101482.88;5018399;28;45429;-83
2021/07/01 02:06:54;;;;;;;;;16.25;12.00;;;;;17.30;64.65;101479.31;5018665;28;45185;-83
2021/07/01 02:09:21;;;;;;;;;13.75;12.25;;;;;17.24;64.62;101479.16;5018961;28;46192;-84
2021/07/01 02:11:47;;;;;;;;;13.00;12.75;;;;;17.14;64.95;101460.59;5017226;28;45918;-85
2021/07/01 02:14:13;;;;;;;;;11.00;10.00;;;;;17.15;64.64;101470.22;5018137;28;45456;-84
2021/07/01 02:16:38;;;;;;;;;14.25;12.25;;;;;17.12;64.94;101466.59;5018885;28;45561;-84
2021/07/01 02:19:04;;;;;;;;;17.25;16.00;;;;;17.11;65.48;101477.94;5018125;28;45337;-82
2021/07/01 02:21:30;;;;;;;;;14.75;12.75;;;;;17.11;65.50;101473.59;5032628;28;45319;-82
2021/07/01 02:23:55;;;;;;;;;18.25;14.25;;;;;17.12;65.44;101467.50;5017811;28;45385;-82
2021/07/01 02:26:21;;;;;;;;;17.00;13.25;;;;;17.08;65.67;101470.00;5018260;28;45364;-83
2021/07/01 02:28:46;;;;;;;;;21.00;16.75;;;;;17.08;65.88;101470.00;5017428;28;46380;-84
2021/07/01 02:31:12;;;;;;;;;13.75;13.50;;;;;17.00;65.70;101462.81;5017735;28;45249;-85
2021/07/01 02:33:38;;;;;;;;;14.00;13.00;;;;;17.00;65.50;101467.16;5017979;28;45242;-85
2021/07/01 02:36:04;;;;;;;;;17.50;15.25;;;;;16.99;65.68;101468.91;5018832;28;45466;-83
2021/07/01 02:38:29;;;;;;;;;14.00;14.00;;;;;16.97;66.41;101473.19;5017477;28;46154;-83
2021/07/01 02:40:55;;;;;;;;;14.75;13.00;;;;;16.97;66.21;101469.66;5017551;28;45334;-84
2021/07/01 02:43:20;;;;;;;;;14.75;12.75;;;;;16.97;66.52;101473.19;5018008;28;45323;-85
2021/07/01 02:45:46;;;;;;;;;14.75;13.75;;;;;16.95;66.74;101471.38;5017817;28;45569;-84
2021/07/01 02:48:12;;;;;;;;;15.75;13.50;;;;;16.96;66.53;101465.28;5017350;28;45383;-85
2021/07/01 02:50:37;;;;;;;;;14.25;12.75;;;;;16.94;66.21;101456.53;5021251;28;45404;-84
2021/07/01 02:53:03;;;;;;;;;19.50;14.75;;;;;16.95;66.02;101458.31;5020892;28;45398;-84
2021/07/01 02:55:28;;;;;;;;;16.25;14.75;;;;;16.95;66.42;101458.31;5017817;28;45462;-84
2021/07/01 02:57:54;;;;;;;;;18.00;14.25;;;;;16.94;66.16;101459.16;5017077;28;46090;-82
2021/07/01 03:00:20;;;;;;;;;17.50;14.25;;;;;16.92;65.84;101448.59;5017546;28;45380;-83
2021/07/01 03:02:45;;;;;;;;;14.00;13.75;;;;;16.96;66.54;101465.28;4999405;28;45305;-83
2021/07/01 03:05:11;;;;;;;;;15.75;14.50;;;;;16.94;66.36;101464.38;5017474;28;45449;-84
2021/07/01 03:07:37;;;;;;;;;13.75;13.25;;;;;16.95;66.38;101463.53;4999192;28;45285;-84
2021/07/01 03:10:04;;;;;;;;;17.25;13.25;;;;;16.95;66.27;101461.78;5017280;28;45253;-84
2021/07/01 03:12:30;;;;;;;;;16.75;14.75;;;;;16.89;66.34;101448.53;4999153;28;45383;-83
2021/07/01 03:14:55;;;;;;;;;14.75;12.50;;;;;16.93;65.96;101452.09;4999418;28;45629;-83
2021/07/01 03:17:21;;;;;;;;;11.50;10.75;;;;;16.92;66.09;101461.66;5017202;28;46196;-82
2021/07/01 03:19:47;;;;;;;;;15.75;13.25;;;;;16.87;65.94;101453.69;5016986;28;45461;-83
2021/07/01 03:22:14;;;;;;;;;17.50;14.50;;;;;16.90;65.61;101462.47;5017274;28;45496;-83
2021/07/01 03:24:40;;;;;;;;;14.00;13.00;;;;;16.87;65.78;101468.50;5015709;28;45540;-83
2021/07/01 03:27:06;;;;;;;;;15.50;15.50;;;;;16.86;65.65;101464.13;5000533;28;47682;-83
2021/07/01 03:29:32;;;;;;;;;15.50;14.25;;;;;16.83;66.27;101462.31;5021743;28;45754;-82
2021/07/01 03:31:58;;;;;;;;;16.50;14.75;;;;;16.80;66.17;101456.06;5017074;28;45567;-83
2021/07/01 03:34:24;;;;;;;;;18.25;12.25;;;;;16.82;66.14;101457.00;5017513;28;45369;-83
2021/07/01 03:36:50;;;;;;;;;14.50;13.00;;;;;16.79;66.11;101459.56;5017098;28;45625;-83
2021/07/01 03:39:16;;;;;;;;;18.75;16.50;;;;;16.74;65.92;101446.31;5016641;28;45365;-83
2021/07/01 03:41:41;;;;;;;;;18.25;16.25;;;;;16.75;66.13;101457.69;5016619;28;45621;-83
2021/07/01 03:44:10;;;;;;;;;15.25;12.50;;;;;16.73;65.95;101454.13;5016853;28;45632;-83
2021/07/01 03:46:37;;;;;;;;;15.75;15.75;;;;;16.74;66.32;101455.91;4998580;28;47906;-83
2021/07/01 03:49:03;;;;;;;;;15.25;15.25;;;;;16.71;66.33;101454.09;5016836;28;45331;-84
2021/07/01 03:51:29;;;;;;;;;15.00;13.75;;;;;16.73;66.42;101461.97;5017030;28;45353;-83
2021/07/01 03:53:54;;;;;;;;;17.00;14.00;;;;;16.73;66.30;101460.25;5017333;28;45358;-83
2021/07/01 03:56:20;;;;;;;;;17.25;14.75;;;;;16.71;66.36;101459.31;5017061;28;45472;-83
2021/07/01 03:58:46;;;;;;;;;14.75;13.50;;;;;16.71;66.68;101456.69;5016911;28;45274;-84
2021/07/01 04:01:11;;;;;;;;;20.00;14.50;;;;;16.69;66.48;101456.63;5017583;28;45349;-84
2021/07/01 04:03:37;;;;;;;;;16.00;13.50;;;;;16.68;67.03;101441.78;5019040;28;45578;-83
2021/07/01 04:06:02;;;;;;;;;14.25;14.00;;;;;16.66;66.96;101438.25;5020666;28;45478;-83
2021/07/01 04:08:28;;;;;;;;;16.25;14.25;;;;;16.68;66.82;101454.00;5019261;28;45415;-83
2021/07/01 04:10:54;;;;;;;;;15.25;14.25;;;;;16.68;67.31;101454.00;5019885;28;45347;-83
2021/07/01 04:13:20;;;;;;;;;14.50;13.75;;;;;16.65;67.01;101451.28;5018774;28;45336;-84
2021/07/01 04:15:45;;;;;;;;;14.75;11.75;;;;;16.68;67.07;101460.09;5017104;28;46071;-85
2021/07/01 04:18:13;;;;;;;;;14.50;13.50;;;;;16.68;67.03;101465.31;5018854;28;45337;-84
2021/07/01 04:20:40;;;;;;;;;15.25;14.50;;;;;16.63;67.02;101453.84;5002150;28;45269;-84
2021/07/01 04:23:06;;;;;;;;;14.50;13.50;;;;;16.62;67.01;101457.31;5018796;28;45167;-84
2021/07/01 04:25:32;;;;;;;;;19.25;16.50;;;;;16.64;67.19;101462.56;5014819;28;46753;-84
2021/07/01 04:27:58;;;;;;;;;18.25;15.00;;;;;16.66;67.16;101463.50;5015999;28;45824;-84
2021/07/01 04:30:24;;;;;;;;;16.25;16.25;;;;;16.68;67.26;101467.06;5015973;28;45273;-85
2021/07/01 04:32:49;;;;;;;;;20.75;18.50;;;;;16.74;67.15;101471.59;5018865;28;45421;-86
2021/07/01 04:35:15;;;;;;;;;17.25;13.00;;;;;16.70;66.78;101468.88;5017780;28;45418;-83
2021/07/01 04:37:41;;;;;;;;;16.50;14.50;;;;;16.76;66.73;101469.91;5014236;28;45341;-81
2021/07/01 04:40:09;;;;;;;;;20.00;16.50;;;;;16.75;66.73;101465.53;5016450;28;45297;-82
2021/07/01 04:42:38;;;;;;;;;15.50;13.00;;;;;16.81;66.84;101479.66;5000721;28;45214;-81
2021/07/01 04:45:06;;;;;;;;;21.00;17.50;;;;;16.80;66.80;101479.59;5021709;28;45511;-82
2021/07/01 04:47:33;;;;;;;;;16.00;13.75;;;;;16.82;66.51;101483.16;5016848;28;45869;-84
2021/07/01 04:49:58;;;;;;;;;19.00;17.00;;;;;16.75;66.73;101476.84;5032586;28;45852;-84
2021/07/01 04:52:27;;;;;;;;;20.25;19.75;;;;;16.81;66.68;101490.13;4998417;28;45289;-84
2021/07/01 04:54:52;;;;;;;;;24.00;20.00;;;;;16.80;66.67;101479.59;4998332;28;48005;-84
2021/07/01 04:57:18;;;;;;;;;20.75;20.25;;;;;16.83;66.34;101482.31;4998025;28;45493;-84
2021/07/01 04:59:43;;;;;;;;;20.00;18.50;;;;;16.83;66.79;101483.22;4997717;28;45416;-84
2021/07/01 05:02:09;;;;;;;;;21.25;18.75;;;;;16.81;66.66;101479.66;5016028;28;45282;-85
2021/07/01 05:04:35;;;;;;;;;19.50;14.00;;;;;16.80;66.27;101477.91;5026678;28;45693;-84
2021/07/01 05:07:00;;;;;;;;;18.25;17.25;;;;;16.81;66.67;101481.38;5035576;28;45436;-84
2021/07/01 05:09:26;;;;;;;;;19.75;15.25;;;;;16.86;66.27;101493.75;5035424;28;45440;-84
2021/07/01 05:11:51;;;;;;;;;18.50;17.25;;;;;16.81;66.49;101497.06;5034747;28;45572;-83
2021/07/01 05:14:17;;;;;;;;;20.00;18.75;;;;;16.79;66.28;101494.41;5017767;28;46473;-83
2021/07/01 05:16:43;;;;;;;;;22.00;18.50;;;;;16.80;66.31;101490.97;5017638;28;45480;-84
2021/07/01 05:19:08;;;;;;;;;18.75;17.50;;;;;16.80;66.66;101492.69;5036364;28;45886;-84
2021/07/01 05:21:34;;;;;;;;;18.75;17.00;;;;;16.77;66.21;101497.84;5039811;28;45344;-84
2021/07/01 05:24:00;;;;;;;;;25.00;20.00;;;;;16.77;66.82;101498.72;5036920;28;45281;-84
2021/07/01 05:26:25;;;;;;;;;19.25;18.25;;;;;16.78;66.34;101494.38;5035585;28;45326;-84
2021/07/01 05:28:51;;;;;;;;;18.50;16.00;;;;;16.80;66.44;101503.13;5037964;28;45332;-84
2021/07/01 05:31:17;;;;;;;;;21.50;18.50;;;;;16.78;66.29;101491.78;5035850;28;45543;-84
2021/07/01 05:33:43;;;;;;;;;21.25;20.25;;;;;16.79;66.29;101498.78;5035058;28;46192;-84
2021/07/01 05:36:09;;;;;;;;;20.75;17.75;;;;;16.82;66.56;101501.47;5035508;28;45461;-84
2021/07/01 05:38:36;;;;;;;;;18.50;17.00;;;;;16.83;66.01;101493.69;5017300;28;45451;-83
2021/07/01 05:41:02;;;;;;;;;23.25;21.25;;;;;16.89;66.14;101490.38;5036017;28;45478;-83
2021/07/01 05:43:28;;;;;;;;;24.25;19.00;;;;;16.94;66.13;101495.75;5035468;28;45423;-83
2021/07/01 05:45:54;;;;;;;;;23.00;16.75;;;;;16.97;65.87;101503.69;5035522;28;45206;-84
2021/07/01 05:48:21;;;;;;;;;23.50;20.00;;;;;16.99;66.14;101502.00;5035758;28;45384;-84
2021/07/01 05:50:53;;;;;;;;;20.50;19.25;;;;;17.04;65.70;101502.13;5039021;28;45460;-84
2021/07/01 05:53:42;;;;;;;;;24.75;21.00;;;;;17.04;65.70;101502.13;5021237;28;47582;-83
2021/07/01 05:56:07;;;;;;;;;31.75;26.75;;;;;17.07;65.37;101500.50;5051945;28;45394;-84
2021/07/01 05:58:33;;;;;;;;;23.00;21.00;;;;;17.04;65.55;101494.28;5057824;28;45438;-84
2021/07/01 06:00:59;;;;;;;;;21.75;20.75;;;;;17.09;65.89;101501.44;5059260;28;45260;-84
2021/07/01 06:03:24;;;;;;;;;22.50;18.25;;;;;17.19;65.49;101510.44;5041510;28;45939;-84
2021/07/01 06:06:01;;;;;;;;;27.25;22.75;;;;;17.18;65.31;101506.06;5037267;28;45425;-84
2021/07/01 06:08:31;;;;;;;;;22.75;19.50;;;;;17.22;65.23;101507.03;5037755;28;45508;-83
2021/07/01 06:11:01;;;;;;;;;53.50;40.00;;;;;17.30;65.17;101514.25;5038335;28;45348;-83
2021/07/01 06:13:29;;;;;;;;;34.25;28.25;;;;;17.35;65.05;101508.25;5037683;28;46323;-83
2021/07/01 06:15:56;;;;;;;;;27.00;24.00;;;;;17.37;64.68;101509.19;5036870;28;45325;-83
2021/07/01 06:18:23;;;;;;;;;20.75;19.25;;;;;17.37;64.60;101511.78;5037313;28;45496;-82
2021/07/01 06:20:50;;;;;;;;;22.50;19.50;;;;;17.39;64.44;101515.34;5037449;28;45447;-83
2021/07/01 06:23:17;;;;;;;;;19.50;19.50;;;;;17.37;64.48;101514.41;5037039;28;46158;-83
2021/07/01 06:25:46;;;;;;;;;33.50;29.75;;;;;17.35;64.19;101510.88;5036279;28;45433;-81
2021/07/01 06:28:13;;;;;;;;;25.25;22.75;;;;;17.39;64.02;101524.06;5036753;28;45371;-82
2021/07/01 06:30:41;;;;;;;;;24.50;21.25;;;;;17.39;63.62;101512.72;5036656;28;45438;-82
2021/07/01 06:33:11;;;;;;;;;21.75;20.00;;;;;17.44;63.42;101513.75;5036720;28;46232;-82
2021/07/01 06:35:37;;;;;;;;;26.00;20.50;;;;;17.49;63.41;101517.38;5037136;28;45906;-82
2021/07/01 06:38:09;;;;;;;;;19.25;17.25;;;;;17.50;62.72;101516.53;5059623;28;45374;-85
2021/07/01 06:40:35;;;;;;;;;22.00;18.00;;;;;17.55;62.35;101514.91;5037201;28;45608;-81
2021/07/01 06:43:02;;;;;;;;;18.75;15.25;;;;;17.56;62.22;101523.69;5036076;28;46490;-83
2021/07/01 06:45:28;;;;;;;;;55.00;45.00;;;;;17.57;61.78;101517.59;5036659;28;45992;-87
2021/07/01 06:47:56;;;;;;;;;23.50;19.25;;;;;17.56;61.52;101516.69;5020217;28;45412;-85
2021/07/01 06:50:29;;;;;;;;;25.25;21.25;;;;;17.57;61.33;101517.59;5037997;28;45615;-92
2021/07/01 06:52:57;;;;;;;;;20.00;17.00;;;;;17.61;61.59;101512.47;5036624;28;47129;-87
2021/07/01 06:55:24;;;;;;;;;20.00;17.25;;;;;17.64;61.79;101517.81;5037969;28;45746;-86
2021/07/01 06:57:49;;;;;;;;;16.75;16.25;;;;;17.62;61.25;101519.50;5038412;28;45393;-86
2021/07/01 07:00:17;;;;;;;;;15.50;13.00;;;;;17.56;61.22;101515.81;5038430;28;45575;-85
2021/07/01 07:02:44;;;;;;;;;24.00;18.25;;;;;17.53;61.42;101519.25;5040882;28;46665;-86
2021/07/01 07:05:11;;;;;;;;;26.00;19.50;;;;;17.56;61.46;101527.16;5037475;28;45385;-86
2021/07/01 07:07:43;;;;;;;;;22.25;20.75;;;;;17.51;61.78;101527.88;5037066;28;45352;-89
2021/07/01 07:10:11;;;;;;;;;22.25;18.50;;;;;17.53;61.68;101534.97;5032034;28;45763;-84
2021/07/01 07:12:43;;;;;;;;;21.00;19.50;;;;;17.52;61.83;101532.28;5032919;28;45559;-84
2021/07/01 07:15:27;;;;;;;;;35.50;33.50;;;;;17.46;62.02;101530.38;5020108;28;45362;-84
2021/07/01 07:17:54;;;;;;;;;30.25;26.25;;;;;17.47;61.70;101525.19;5033433;28;45479;-84
2021/07/01 07:20:22;;;;;;;;;22.50;21.00;;;;;17.50;62.05;101537.47;5035425;28;45534;-81
2021/07/01 07:22:50;;;;;;;;;20.75;18.25;;;;;17.46;62.21;101533.00;5035498;28;45356;-79
2021/07/01 07:25:16;;;;;;;;;22.50;22.50;;;;;17.50;62.14;101537.47;5036891;28;45734;-80
2021/07/01 07:28:02;;;;;;;;;27.25;23.00;;;;;17.55;62.27;101548.09;5036072;28;45345;-81
2021/07/01 07:30:28;;;;;;;;;23.25;20.50;;;;;17.53;61.97;101534.97;5036082;28;45454;-82
2021/07/01 07:32:57;;;;;;;;;23.50;23.25;;;;;17.53;61.84;101534.97;5035931;28;46301;-82
2021/07/01 07:35:23;;;;;;;;;27.50;22.25;;;;;17.55;61.72;101540.22;5036302;28;45372;-83
2021/07/01 07:37:49;;;;;;;;;23.75;20.00;;;;;17.57;61.56;101544.66;5036740;28;45229;-82
2021/07/01 07:40:15;;;;;;;;;25.50;24.75;;;;;17.53;61.52;101534.06;5036554;28;45566;-81
2021/07/01 07:42:46;;;;;;;;;23.00;23.00;;;;;17.57;61.55;101535.94;5034808;28;45521;-81
2021/07/01 07:45:14;;;;;;;;;22.75;20.25;;;;;17.57;61.65;101530.69;5035560;28;45893;-79
2021/07/01 07:47:50;;;;;;;;;29.75;23.75;;;;;17.59;61.65;101529.00;5036747;28;45452;-89
2021/07/01 07:50:15;;;;;;;;;30.50;23.00;;;;;17.67;61.39;101539.66;5040726;28;45272;-83
2021/07/01 07:52:51;;;;;;;;;27.50;22.25;;;;;17.67;61.45;101532.72;5036043;28;45936;-83
2021/07/01 07:55:20;;;;;;;;;25.00;22.50;;;;;17.58;61.22;101511.53;5036673;28;45800;-84
2021/07/01 07:57:51;;;;;;;;;21.50;19.75;;;;;17.67;61.28;101523.94;5036906;28;45495;-87
2021/07/01 08:00:20;;;;;;;;;24.75;21.50;;;;;17.68;60.56;101530.97;5036638;28;45462;-83
2021/07/01 08:02:54;;;;;;;;;30.00;26.75;;;;;17.75;60.92;101543.41;5035600;28;45583;-80
2021/07/01 08:05:23;;;;;;;;;26.50;23.25;;;;;17.71;61.04;101531.94;5035508;28;45886;-84
2021/07/01 08:07:51;;;;;;;;;25.00;23.75;;;;;17.70;60.88;101527.56;5036422;28;45474;-84
2021/07/01 08:10:25;;;;;;;;;24.00;21.75;;;;;17.84;61.06;101538.41;5035514;28;45583;-84
2021/07/01 08:12:52;;;;;;;;;26.00;22.25;;;;;17.88;60.49;101539.38;5014986;28;47778;-82
2021/07/01 08:15:20;;;;;;;;;22.75;21.75;;;;;17.93;60.50;101530.78;5047365;28;45935;-82
2021/07/01 08:17:52;;;;;;;;;19.50;19.25;;;;;17.91;60.61;101524.59;5016327;28;45494;-83
2021/07/01 08:20:20;;;;;;;;;24.25;21.75;;;;;17.88;60.06;101518.41;5032385;28;45569;-80
2021/07/01 08:22:49;;;;;;;;;26.00;22.50;;;;;17.98;60.33;101524.81;5015725;28;47946;-82
2021/07/01 08:25:16;;;;;;;;;27.00;23.50;;;;;17.94;59.70;101524.69;5034423;28;45798;-83
2021/07/01 08:27:44;;;;;;;;;24.25;18.75;;;;;17.91;60.04;101519.38;5034788;28;45638;-83
2021/07/01 08:30:11;;;;;;;;;20.75;18.50;;;;;17.91;59.56;101515.88;5036983;28;45352;-83
2021/07/01 08:32:38;;;;;;;;;21.00;19.25;;;;;17.96;59.72;101529.97;5019350;28;47515;-81
2021/07/01 08:35:06;;;;;;;;;26.75;21.75;;;;;17.91;59.78;101510.63;5035135;28;45361;-82
2021/07/01 08:37:33;;;;;;;;;21.00;20.25;;;;;17.92;59.44;101521.16;5035488;28;45198;-81
2021/07/01 08:40:00;;;;;;;;;22.50;20.75;;;;;17.94;59.60;101521.19;5035617;28;45405;-83
2021/07/01 08:42:32;;;;;;;;;26.50;19.75;;;;;17.88;59.51;101510.56;5033181;28;46954;-81
2021/07/01 08:45:05;;;;;;;;;21.00;18.75;;;;;17.97;59.64;101523.91;5034996;28;45327;-82
2021/07/01 08:47:33;;;;;;;;;23.00;22.75;;;;;18.03;59.58;101523.19;5036092;28;45368;-80
2021/07/01 08:50:05;;;;;;;;;20.75;18.25;;;;;18.06;59.66;101523.28;5037340;28;45483;-85
2021/07/01 08:52:33;;;;;;;;;24.25;21.00;;;;;18.07;59.95;101522.44;5036732;28;46481;-85
2021/07/01 08:55:06;;;;;;;;;24.50;21.50;;;;;18.19;59.58;101524.47;5037793;28;45335;-86
2021/07/01 08:57:36;;;;;;;;;26.25;21.75;;;;;18.35;59.60;101523.09;5038608;28;45456;-87
2021/07/01 09:00:11;;;;;;;;;22.75;20.00;;;;;18.59;59.05;101524.53;5022434;28;45650;-87
2021/07/01 09:02:48;;;;;;;;;25.25;23.25;;;;;18.72;58.34;101505.63;5037457;28;47186;-86
2021/07/01 09:05:33;;;;;;;;;19.75;19.00;;;;;18.98;57.56;101519.34;5019133;28;45865;-91
2021/07/01 09:08:08;;;;;;;;;21.75;18.50;;;;;19.17;57.66;101510.09;5026551;28;45451;-89
2021/07/01 09:10:34;;;;;;;;;26.75;21.75;;;;;19.36;57.21;101513.09;5003324;28;45611;-89
2021/07/01 09:13:03;;;;;;;;;22.25;19.00;;;;;19.51;57.10;101503.72;5018161;28;45531;-88
2021/07/01 09:15:29;;;;;;;;;21.75;18.75;;;;;19.75;56.58;101519.09;5018539;28;45816;-89
2021/07/01 09:17:55;;;;;;;;;21.75;20.75;;;;;19.85;55.76;101496.47;5013512;28;45455;-86
2021/07/01 09:20:34;;;;;;;;;22.00;17.50;;;;;20.03;53.98;101511.69;5008156;28;45436;-90
2021/07/01 09:23:01;;;;;;;;;16.50;13.50;;;;;20.09;52.63;101510.06;4999106;28;47713;-88
2021/07/01 09:25:27;;;;;;;;;17.25;16.25;;;;;20.14;51.39;101510.13;5026605;28;46105;-87
2021/07/01 09:27:55;;;;;;;;;15.00;13.25;;;;;20.18;52.30;101508.44;5018584;28;45451;-83
2021/07/01 09:30:27;;;;;;;;;21.25;18.25;;;;;20.22;52.55;101507.63;5015008;28;45485;-87
2021/07/01 09:33:00;;;;;;;;;18.50;15.50;;;;;20.24;52.55;101506.81;5000510;28;47077;-86
2021/07/01 09:35:29;;;;;;;;;16.00;15.50;;;;;20.28;52.86;101510.34;4998075;28;45491;-86
2021/07/01 09:37:59;;;;;;;;;24.50;18.25;;;;;20.41;52.37;101511.41;5019100;28;45347;-85
2021/07/01 09:40:25;;;;;;;;;21.75;20.75;;;;;20.44;51.51;101507.97;5004096;28;45455;-86
2021/07/01 09:42:59;;;;;;;;;25.00;18.75;;;;;20.52;51.93;101516.88;5035459;28;47422;-88
2021/07/01 09:45:26;;;;;;;;;17.50;15.25;;;;;20.55;52.04;101509.88;5019559;28;45222;-85
2021/07/01 09:48:00;;;;;;;;;18.75;17.25;;;;;20.66;51.08;101510.06;5001704;28;45506;-86
2021/07/01 09:50:27;;;;;;;;;23.75;21.50;;;;;20.75;50.82;101525.09;5020692;28;45492;-85
2021/07/01 09:52:56;;;;;;;;;18.25;17.00;;;;;20.77;51.74;101518.13;5019970;28;46258;-86
2021/07/01 09:55:27;;;;;;;;;25.00;21.75;;;;;20.78;52.16;101519.91;5018716;28;45868;-84
2021/07/01 09:57:55;;;;;;;;;24.50;21.00;;;;;20.88;51.72;101518.28;5019497;28;45448;-86
2021/07/01 10:00:28;;;;;;;;;21.50;18.25;;;;;20.88;51.70;101510.41;5019684;28;45552;-83
2021/07/01 10:03:07;;;;;;;;;21.75;20.00;;;;;21.03;51.26;101509.72;5004642;28;46571;-91
2021/07/01 10:05:34;;;;;;;;;23.00;21.50;;;;;21.06;51.49;101509.72;5021671;28;45686;-93
2021/07/01 10:07:59;;;;;;;;;23.00;19.25;;;;;21.14;51.17;101520.34;5022108;28;45390;-93
2021/07/01 10:10:28;;;;;;;;;27.50;20.75;;;;;21.12;50.22;101511.53;5026175;28;45226;-92
2021/07/01 10:12:54;;;;;;;;;21.50;20.00;;;;;21.12;51.16;101515.09;5019202;28;45496;-90
2021/07/01 10:15:32;;;;;;;;;22.50;20.50;;;;;21.11;50.32;101515.94;5019656;28;45316;-92
2021/07/01 10:18:08;;;;;;;;;19.75;19.00;;;;;21.01;50.60;101517.56;5014144;28;45270;-91
2021/07/01 10:20:41;;;;;;;;;23.75;20.50;;;;;20.97;50.32;101517.50;5028105;28;45239;-92
2021/07/01 10:23:21;;;;;;;;;21.75;20.00;;;;;20.90;50.60;101511.28;5006988;28;46798;-89
2021/07/01 10:25:50;;;;;;;;;25.00;21.75;;;;;20.84;51.00;101512.06;5008851;28;45661;-91
2021/07/01 10:28:19;;;;;;;;;19.50;18.25;;;;;20.85;51.52;101512.97;5012278;28;45246;-91
2021/07/01 10:31:05;;;;;;;;;20.25;17.50;;;;;20.94;51.32;101509.59;5019701;28;45478;-92
2021/07/01 10:33:36;;;;;;;;;19.75;19.25;;;;;21.02;51.39;101498.28;5032650;28;48021;-85
2021/07/01 10:36:05;;;;;;;;;26.25;24.25;;;;;21.21;51.33;101502.88;5038196;28;45490;-89
2021/07/01 10:38:45;;;;;;;;;23.00;21.50;;;;;21.40;50.94;101514.53;5018731;28;45619;-85
2021/07/01 10:41:24;;;;;;;;;27.25;22.75;;;;;21.36;51.08;101497.81;5037632;28;45658;-85
2021/07/01 10:43:50;;;;;;;;;27.75;24.00;;;;;21.53;50.53;101516.44;5015643;28;46719;-82
2021/07/01 10:46:16;;;;;;;;;38.50;33.50;;;;;21.54;50.73;101502.41;5035374;28;45510;-82
2021/07/01 10:48:42;;;;;;;;;36.25;32.00;;;;;21.58;51.06;101509.44;5035795;28;45516;-81
2021/07/01 10:51:13;;;;;;;;;26.25;24.75;;;;;21.62;50.03;101527.09;5036279;28;45606;-83
2021/07/01 10:53:43;;;;;;;;;19.50;18.00;;;;;21.56;50.04;101524.34;5035004;28;46610;-78
2021/07/01 10:56:39;;;;;;;;;21.25;19.00;;;;;21.49;49.67;101515.50;5029047;28;45360;-76
2021/07/01 10:59:05;;;;;;;;;18.75;17.25;;;;;21.53;50.29;101519.06;5017346;28;45375;-82
2021/07/01 11:01:32;;;;;;;;;23.00;21.00;;;;;21.54;50.12;101518.19;5036522;28;45582;-82
2021/07/01 11:04:08;;;;;;;;;22.00;20.00;;;;;21.53;49.49;101512.91;5036197;28;46239;-84
2021/07/01 11:06:34;;;;;;;;;27.00;21.00;;;;;21.52;49.82;101521.66;5037154;28;45457;-84
2021/07/01 11:09:00;;;;;;;;;24.75;20.00;;;;;21.58;50.35;101516.47;5038454;28;45336;-84
2021/07/01 11:11:31;;;;;;;;;24.75;19.50;;;;;21.65;49.21;101516.56;5037304;28;45808;-85
2021/07/01 11:14:02;;;;;;;;;24.00;19.25;;;;;21.78;48.61;101516.69;5035895;28;46383;-83
2021/07/01 11:16:42;;;;;;;;;20.75;20.75;;;;;21.91;49.28;101515.06;5035668;28;45510;-83